createdAt,value
2024-02-20T04:43:22.365Z,100787.84
2024-02-20T04:46:28.364Z,100787.06
2024-02-20T04:49:30.583Z,100793.47
2024-02-20T04:52:33.416Z,100795.91
2024-02-20T04:55:35.925Z,100790.28
2024-02-20T04:58:38.994Z,100796.66
2024-02-20T05:01:41.536Z,100800.63
2024-02-20T05:04:44.409Z,100808.28
2024-02-20T05:07:46.686Z,100805.56
2024-02-20T05:10:49.236Z,100813.66
2024-02-20T05:13:51.535Z,100808.28
2024-02-20T05:16:53.983Z,100810.16
2024-02-20T05:19:56.317Z,100804.84
2024-02-20T05:22:58.780Z,100811.41
2024-02-20T05:26:00.933Z,100800.28
2024-02-20T05:29:03.396Z,100809.22
2024-02-20T05:32:05.854Z,100812.87
2024-02-20T05:35:09.346Z,100809.75
2024-02-20T05:38:13.011Z,100813.09
2024-02-20T05:41:15.791Z,100815.06
2024-02-20T05:44:19.103Z,100824.28
2024-02-20T05:47:22.306Z,100835.41
2024-02-20T05:50:24.551Z,100839.06
2024-02-20T05:53:27.162Z,100830.00
2024-02-20T05:56:29.394Z,100841.38
2024-02-20T05:59:31.865Z,100847.06
2024-02-20T06:02:34.133Z,100847.44
2024-02-20T06:05:36.686Z,100854.06
2024-02-20T06:08:43.819Z,100853.50
2024-02-20T06:11:46.286Z,100855.03
2024-02-20T06:14:48.519Z,100863.66
2024-02-20T06:17:51.254Z,100855.88
2024-02-20T06:20:54.425Z,100859.25
2024-02-20T06:23:56.865Z,100861.31
2024-02-20T06:26:58.989Z,100855.84
2024-02-20T06:30:01.483Z,100852.31
2024-02-20T06:33:04.403Z,100855.59
2024-02-20T06:36:07.465Z,100853.66
2024-02-20T06:39:10.467Z,100861.63
2024-02-20T06:42:12.911Z,100854.22
2024-02-20T06:45:16.457Z,100854.78
2024-02-20T06:48:19.318Z,100844.31
2024-02-20T06:51:26.936Z,100845.88
2024-02-20T06:54:29.403Z,100851.44
2024-02-20T06:57:31.516Z,100851.72
2024-02-20T07:00:38.347Z,100858.09
2024-02-20T07:03:40.623Z,100869.53
2024-02-20T07:06:43.314Z,100869.34
2024-02-20T07:09:45.575Z,100880.66
2024-02-20T07:12:49.063Z,100878.78
2024-02-20T07:15:51.253Z,100882.19
2024-02-20T07:18:53.973Z,100877.69
2024-02-20T07:21:56.933Z,100884.56
2024-02-20T07:25:02.953Z,100878.34
2024-02-20T07:28:07.408Z,100873.75
2024-02-20T07:31:09.966Z,100875.81
2024-02-20T07:34:13.982Z,100889.06
2024-02-20T07:37:16.700Z,100928.31
2024-02-20T07:40:19.211Z,100961.63
2024-02-20T07:43:21.872Z,101002.94
2024-02-20T07:46:24.149Z,100932.44
2024-02-20T07:49:26.782Z,100876.84
2024-02-20T07:52:29.659Z,100956.16
2024-02-20T07:55:33.216Z,101019.84
2024-02-20T07:58:44.342Z,100975.16
2024-02-20T08:01:53.078Z,100976.91
2024-02-20T08:04:55.789Z,100992.00
2024-02-20T08:07:58.132Z,100972.59
2024-02-20T08:11:00.755Z,100890.34
2024-02-20T08:14:02.988Z,100825.16
2024-02-20T08:17:05.579Z,100794.53
2024-02-20T08:20:08.414Z,100833.81
2024-02-20T08:23:11.155Z,100862.44
2024-02-20T08:26:15.472Z,100866.81
2024-02-20T08:29:18.067Z,100890.66
2024-02-20T08:32:20.622Z,100878.25
2024-02-20T08:35:23.240Z,100893.66
2024-02-20T08:38:25.704Z,100889.22
2024-02-20T08:41:28.463Z,100891.69
2024-02-20T08:44:30.950Z,100909.34
2024-02-20T08:47:42.745Z,100909.34
2024-02-20T08:50:45.849Z,100905.31
2024-02-20T08:53:48.629Z,100947.78
2024-02-20T08:56:53.112Z,101029.38
2024-02-20T08:59:56.421Z,101018.25
2024-02-20T09:03:00.144Z,100972.28
2024-02-20T09:06:03.542Z,101084.72
2024-02-20T09:09:06.024Z,101084.44
2024-02-20T09:12:10.102Z,101057.31
2024-02-20T09:15:12.475Z,100963.81
2024-02-20T09:18:15.185Z,100930.78
2024-02-20T09:21:17.947Z,100962.19
2024-02-20T09:24:20.563Z,100980.38
2024-02-20T09:27:22.979Z,100999.66
2024-02-20T09:30:26.278Z,100976.50
2024-02-20T09:33:30.498Z,100930.25
2024-02-20T09:36:33.109Z,100889.41
2024-02-20T09:39:35.251Z,100865.81
2024-02-20T09:42:45.538Z,100889.72
2024-02-20T09:45:51.961Z,100886.50
2024-02-20T09:48:55.750Z,100894.97
2024-02-20T09:52:00.420Z,100928.25
2024-02-20T09:55:04.891Z,100933.44
2024-02-20T09:58:07.234Z,101065.50
2024-02-20T10:01:11.249Z,101089.97
2024-02-20T10:04:14.122Z,101080.69
2024-02-20T10:07:19.913Z,101086.31
2024-02-20T10:10:23.256Z,100997.03
2024-02-20T10:13:25.548Z,100949.19
2024-02-20T10:16:28.375Z,100936.75
2024-02-20T10:19:30.852Z,101004.53
2024-02-20T10:22:33.475Z,101134.97
2024-02-20T10:25:36.973Z,101130.41
2024-02-20T10:28:39.939Z,101092.62
2024-02-20T10:31:42.394Z,101044.03
2024-02-20T10:34:47.581Z,101099.97
2024-02-20T10:38:01.263Z,100961.09
2024-02-20T10:41:05.785Z,101056.47
2024-02-20T10:44:08.893Z,100925.34
2024-02-20T10:47:11.630Z,100815.06
2024-02-20T10:50:15.663Z,100778.31
2024-02-20T10:53:20.269Z,100800.75
2024-02-20T10:56:22.831Z,100871.94
2024-02-20T10:59:26.616Z,100936.72
2024-02-20T11:02:29.532Z,101077.87
2024-02-20T11:05:32.845Z,100957.00
2024-02-20T11:08:35.299Z,101037.06
2024-02-20T11:11:38.050Z,101096.28
2024-02-20T11:14:40.328Z,100996.69
2024-02-20T11:17:43.843Z,101063.91
2024-02-20T11:20:46.531Z,101296.34
2024-02-20T11:23:49.125Z,101339.75
2024-02-20T11:27:01.544Z,101460.09
2024-02-20T11:30:21.240Z,101579.53
2024-02-20T11:33:25.799Z,101605.16
2024-02-20T11:36:28.451Z,101622.00
2024-02-20T11:39:30.741Z,101605.53
2024-02-20T11:42:33.689Z,101547.91
2024-02-20T11:45:36.171Z,101656.34
2024-02-20T11:48:39.251Z,101715.31
2024-02-20T11:51:41.590Z,101661.44
2024-02-20T11:54:44.304Z,101713.84
2024-02-20T11:57:47.703Z,101722.75
2024-02-20T12:00:53.273Z,101697.19
2024-02-20T12:03:55.984Z,101722.16
2024-02-20T12:07:09.036Z,101608.38
2024-02-20T12:10:17.990Z,101526.50
2024-02-20T12:13:22.213Z,101392.22
2024-02-20T12:16:28.737Z,101299.28
2024-02-20T12:19:32.654Z,101000.81
2024-02-20T12:22:35.288Z,100825.56
2024-02-20T12:25:37.679Z,100734.94
2024-02-20T12:28:41.016Z,100619.97
2024-02-20T12:31:48.718Z,100630.22
2024-02-20T12:34:52.936Z,100652.75
2024-02-20T12:37:55.682Z,100713.62
2024-02-20T12:40:58.426Z,100727.69
2024-02-20T12:44:00.847Z,100747.50
2024-02-20T12:47:05.355Z,100732.16
2024-02-20T12:50:08.044Z,100747.81
2024-02-20T12:53:10.676Z,100751.69
2024-02-20T12:56:13.973Z,100753.47
2024-02-20T12:59:18.334Z,100751.00
2024-02-20T13:02:20.707Z,100742.97
2024-02-20T13:05:23.690Z,100786.00
2024-02-20T13:08:25.901Z,100775.13
2024-02-20T13:11:29.126Z,100746.00
2024-02-20T13:14:32.165Z,100754.50
2024-02-20T13:17:37.815Z,100724.50
2024-02-20T13:20:41.528Z,100755.81
2024-02-20T13:23:43.988Z,100776.66
2024-02-20T13:26:46.488Z,100769.03
2024-02-20T13:29:49.117Z,100747.47
2024-02-20T13:32:51.488Z,100755.53
2024-02-20T13:35:54.462Z,100726.00
2024-02-20T13:38:57.438Z,100758.41
2024-02-20T13:42:00.068Z,100760.91
2024-02-20T13:45:05.768Z,100765.97
2024-02-20T13:48:15.256Z,100785.69
2024-02-20T13:51:21.116Z,100788.47
2024-02-20T13:54:26.987Z,100796.59
2024-02-20T13:57:30.734Z,100792.84
2024-02-20T14:00:33.255Z,100792.84
2024-02-20T14:03:36.053Z,100791.84
2024-02-20T14:06:39.877Z,100786.56
2024-02-20T14:09:42.653Z,100792.22
2024-02-20T14:12:45.364Z,100792.22
2024-02-20T14:15:50.091Z,100807.06
2024-02-20T14:18:52.651Z,100799.87
2024-02-20T14:21:58.236Z,100792.00
2024-02-20T14:25:03.667Z,100787.69
2024-02-20T14:28:06.411Z,100794.81
2024-02-20T14:31:10.480Z,100794.16
2024-02-20T14:34:13.176Z,100795.06
2024-02-20T14:37:15.864Z,100790.50
2024-02-20T14:40:19.485Z,100794.81
2024-02-20T14:43:24.052Z,100797.06
2024-02-20T14:46:26.563Z,100795.44
2024-02-20T14:49:29.301Z,100790.84
2024-02-20T14:52:32.006Z,100797.94
2024-02-20T14:55:35.696Z,100805.78
2024-02-20T14:58:38.227Z,100804.72
2024-02-20T15:01:40.515Z,100805.28
2024-02-20T15:04:43.548Z,100803.66
2024-02-20T15:07:46.360Z,100810.37
2024-02-20T15:10:49.005Z,100806.34
2024-02-20T15:13:51.340Z,100805.88
2024-02-20T15:16:56.251Z,100811.72
2024-02-20T15:19:58.602Z,100808.53
2024-02-20T15:23:01.606Z,100815.84
2024-02-20T15:26:07.945Z,100809.34
2024-02-20T15:29:10.771Z,100806.81
2024-02-20T15:32:15.377Z,100810.56
2024-02-20T15:35:21.806Z,100807.84
2024-02-20T15:38:24.203Z,100819.03
2024-02-20T15:41:26.709Z,100809.84
2024-02-20T15:44:29.328Z,100816.47
2024-02-20T15:47:31.936Z,100821.97
2024-02-20T15:50:34.100Z,100827.37
2024-02-20T15:53:36.556Z,100819.56
2024-02-20T15:56:38.685Z,100831.41
2024-02-20T15:59:41.088Z,100822.00
2024-02-20T16:02:43.512Z,100830.47
2024-02-20T16:05:46.750Z,100837.91
2024-02-20T16:08:49.364Z,100834.91
2024-02-20T16:11:52.117Z,100846.53
2024-02-20T16:14:59.388Z,100842.78
2024-02-20T16:18:04.106Z,100837.50
2024-02-20T16:21:06.494Z,100854.03
